Time;durP1;ratioP1;P1;durP2;ratioP2;P2;SDS_P1;SDS_P2;PMS_P1;PMS_P2;Temp;Humidity;BMP_temperature;BMP_pressure;BME280_temperature;BME280_humidity;BME280_pressure;Samples;Min_cycle;Max_cycle;Signal;HPM_P1;HPM_P2
2022/12/05 00:01:21;;;;;;;33.05;16.88;;;;;;;;;;5076105;28;20013;-56
2022/12/05 00:03:46;;;;;;;41.85;21.75;;;;;;;;;;5070490;28;20466;-55
2022/12/05 00:06:12;;;;;;;36.97;18.20;;;;;;;;;;5078374;28;20044;-55
2022/12/05 00:08:37;;;;;;;36.63;18.77;;;;;;;;;;5075536;28;20016;-55
2022/12/05 00:11:03;;;;;;;36.20;18.90;;;;;;;;;;5074754;28;20049;-55
2022/12/05 00:13:28;;;;;;;31.40;16.48;;;;;;;;;;5072527;28;20382;-55
2022/12/05 00:15:54;;;;;;;30.73;15.20;;;;;;;;;;5075166;28;20021;-55
2022/12/05 00:18:19;;;;;;;32.38;15.93;;;;;;;;;;5073984;28;20362;-56
2022/12/05 00:20:45;;;;;;;29.52;15.10;;;;;;;;;;5072053;28;20109;-56
2022/12/05 00:23:10;;;;;;;21.70;12.18;;;;;;;;;;5074049;28;20024;-54
2022/12/05 00:25:35;;;;;;;22.83;11.68;;;;;;;;;;5070715;28;20449;-55
2022/12/05 00:28:00;;;;;;;23.60;12.02;;;;;;;;;;5073177;28;20094;-55
2022/12/05 00:30:26;;;;;;;26.42;12.80;;;;;;;;;;5069137;28;20114;-55
2022/12/05 00:32:51;;;;;;;20.45;11.60;;;;;;;;;;5067288;28;20055;-55
2022/12/05 00:35:19;;;;;;;19.63;10.88;;;;;;;;;;5071259;28;20035;-55
2022/12/05 00:37:44;;;;;;;18.10;10.27;;;;;;;;;;5073781;28;20081;-55
2022/12/05 00:40:09;;;;;;;18.90;9.50;;;;;;;;;;5068329;28;20044;-57
2022/12/05 00:42:34;;;;;;;21.35;9.70;;;;;;;;;;5072278;28;20028;-56
2022/12/05 00:45:00;;;;;;;16.23;9.45;;;;;;;;;;5074512;28;20016;-55
2022/12/05 00:47:25;;;;;;;16.73;9.00;;;;;;;;;;5074603;28;20867;-56
2022/12/05 00:49:50;;;;;;;16.02;9.55;;;;;;;;;;5072836;28;20847;-56
2022/12/05 00:52:15;;;;;;;15.02;8.38;;;;;;;;;;5077440;28;20073;-56
2022/12/05 00:54:41;;;;;;;13.55;8.05;;;;;;;;;;5077398;28;20028;-55
2022/12/05 00:57:06;;;;;;;16.45;8.65;;;;;;;;;;5077249;28;20052;-53
2022/12/05 00:59:31;;;;;;;13.95;8.25;;;;;;;;;;5071701;28;20444;-54
2022/12/05 01:01:57;;;;;;;13.60;7.65;;;;;;;;;;5073565;28;20111;-56
2022/12/05 01:04:22;;;;;;;14.60;7.90;;;;;;;;;;5074847;28;20039;-56
2022/12/05 01:06:48;;;;;;;15.98;8.10;;;;;;;;;;5074689;28;20016;-55
2022/12/05 01:09:13;;;;;;;14.48;8.52;;;;;;;;;;5076055;28;20058;-54
2022/12/05 01:11:39;;;;;;;14.65;8.73;;;;;;;;;;5074236;28;20086;-55
2022/12/05 01:14:04;;;;;;;17.38;9.30;;;;;;;;;;5076054;28;20032;-56
2022/12/05 01:16:31;;;;;;;15.80;8.98;;;;;;;;;;5069336;28;20384;-56
2022/12/05 01:18:56;;;;;;;17.73;9.18;;;;;;;;;;5071901;28;20029;-56
2022/12/05 01:21:21;;;;;;;15.18;8.65;;;;;;;;;;5071187;28;20041;-56
2022/12/05 01:23:47;;;;;;;16.40;8.38;;;;;;;;;;5073330;28;20472;-56
2022/12/05 01:26:12;;;;;;;17.65;8.95;;;;;;;;;;5075677;28;20039;-56
2022/12/05 01:28:38;;;;;;;14.10;8.32;;;;;;;;;;5074452;28;20024;-56
2022/12/05 01:31:04;;;;;;;19.83;8.75;;;;;;;;;;5073711;28;20273;-55
2022/12/05 01:33:29;;;;;;;17.63;9.30;;;;;;;;;;5074678;28;20028;-56
2022/12/05 01:35:55;;;;;;;17.00;9.02;;;;;;;;;;5070008;28;20086;-54
2022/12/05 01:38:20;;;;;;;17.35;10.07;;;;;;;;;;5075184;28;20051;-56
2022/12/05 01:40:46;;;;;;;16.48;8.45;;;;;;;;;;5070817;28;20020;-55
2022/12/05 01:43:15;;;;;;;15.00;8.82;;;;;;;;;;5073566;28;20024;-56
2022/12/05 01:45:41;;;;;;;17.83;9.05;;;;;;;;;;5070669;28;20040;-56
2022/12/05 01:48:25;;;;;;;19.80;10.10;;;;;;;;;;5079507;28;20081;-55
2022/12/05 01:50:51;;;;;;;15.90;9.07;;;;;;;;;;5078121;28;20032;-56
2022/12/05 01:53:16;;;;;;;18.65;9.73;;;;;;;;;;5077915;28;20097;-55
2022/12/05 01:55:41;;;;;;;16.70;8.73;;;;;;;;;;5077403;28;20027;-57
2022/12/05 01:58:07;;;;;;;16.23;8.25;;;;;;;;;;5073254;28;20086;-56
2022/12/05 02:00:32;;;;;;;18.67;9.45;;;;;;;;;;5069759;28;20350;-56
2022/12/05 02:02:58;;;;;;;16.15;9.15;;;;;;;;;;5074458;28;20262;-56
2022/12/05 02:05:24;;;;;;;17.13;9.65;;;;;;;;;;5074867;28;20535;-56
2022/12/05 02:07:53;;;;;;;17.77;8.60;;;;;;;;;;5072026;28;20453;-55
2022/12/05 02:10:18;;;;;;;15.68;7.93;;;;;;;;;;5077315;28;20046;-55
2022/12/05 02:12:43;;;;;;;17.55;9.25;;;;;;;;;;5071465;28;20028;-55
2022/12/05 02:15:14;;;;;;;18.40;9.55;;;;;;;;;;5070671;28;20024;-55
2022/12/05 02:17:45;;;;;;;14.57;8.63;;;;;;;;;;5078047;28;20674;-56
2022/12/05 02:20:13;;;;;;;14.75;8.98;;;;;;;;;;5072982;28;20542;-56
2022/12/05 02:22:44;;;;;;;12.88;8.38;;;;;;;;;;5073926;28;20378;-56
2022/12/05 02:25:19;;;;;;;13.38;8.35;;;;;;;;;;5080200;28;20024;-55
2022/12/05 02:27:50;;;;;;;14.77;8.50;;;;;;;;;;5074076;28;20028;-56
2022/12/05 02:30:19;;;;;;;17.08;9.38;;;;;;;;;;5067507;28;20039;-55
2022/12/05 02:32:56;;;;;;;18.83;10.32;;;;;;;;;;5070679;28;20028;-55
2022/12/05 02:35:37;;;;;;;18.10;10.27;;;;;;;;;;5072737;28;20054;-56
2022/12/05 02:38:02;;;;;;;;;;;;;;;;;;5075051;28;20030;-55
2022/12/05 02:40:29;;;;;;;20.38;9.43;;;;;;;;;;5078400;28;19908;-55
2022/12/05 02:42:58;;;;;;;16.27;9.63;;;;;;;;;;5073081;28;20027;-56
2022/12/05 02:45:23;;;;;;;16.33;9.40;;;;;;;;;;5075738;28;20432;-55
2022/12/05 02:47:50;;;;;;;17.55;9.65;;;;;;;;;;5073154;28;20334;-55
2022/12/05 02:50:16;;;;;;;13.95;8.55;;;;;;;;;;5073263;28;20051;-55
2022/12/05 02:52:42;;;;;;;16.55;9.73;;;;;;;;;;5063093;28;20103;-55
2022/12/05 02:55:07;;;;;;;15.95;9.27;;;;;;;;;;5074806;28;20131;-56
2022/12/05 02:57:33;;;;;;;15.75;8.57;;;;;;;;;;5069509;28;20020;-56
2022/12/05 02:59:58;;;;;;;15.45;8.35;;;;;;;;;;5068666;28;20051;-55
2022/12/05 03:02:27;;;;;;;13.82;7.55;;;;;;;;;;5074214;28;20036;-56
2022/12/05 03:04:53;;;;;;;12.80;7.63;;;;;;;;;;5075822;28;20452;-56
2022/12/05 03:07:19;;;;;;;11.38;7.13;;;;;;;;;;5080980;28;20486;-56
2022/12/05 03:09:55;;;;;;;11.32;7.13;;;;;;;;;;5068789;28;20045;-55
2022/12/05 03:12:21;;;;;;;10.68;7.47;;;;;;;;;;5076096;28;20432;-56
2022/12/05 03:14:52;;;;;;;11.88;7.35;;;;;;;;;;5075671;28;20402;-56
2022/12/05 03:17:20;;;;;;;8.88;6.45;;;;;;;;;;5076342;28;20058;-57
2022/12/05 03:19:54;;;;;;;11.82;6.80;;;;;;;;;;5066257;28;20036;-56
2022/12/05 03:22:38;;;;;;;12.35;7.32;;;;;;;;;;5074738;28;20028;-55
2022/12/05 03:25:03;;;;;;;14.50;9.40;;;;;;;;;;5070024;28;20584;-55
2022/12/05 03:27:28;;;;;;;16.45;9.68;;;;;;;;;;5071035;28;20039;-56
2022/12/05 03:29:55;;;;;;;18.55;9.77;;;;;;;;;;5069917;28;20024;-56
2022/12/05 03:32:29;;;;;;;17.20;9.27;;;;;;;;;;5070644;28;20019;-56
2022/12/05 03:34:54;;;;;;;17.52;9.43;;;;;;;;;;5076974;28;20526;-56
2022/12/05 03:37:32;;;;;;;17.02;10.77;;;;;;;;;;5069913;28;20116;-55
2022/12/05 03:40:01;;;;;;;16.30;9.40;;;;;;;;;;5073337;28;20379;-55
2022/12/05 03:42:27;;;;;;;14.20;9.15;;;;;;;;;;5076056;28;20023;-56
2022/12/05 03:45:00;;;;;;;15.85;9.32;;;;;;;;;;5073866;28;20384;-57
2022/12/05 03:47:27;;;;;;;16.42;10.10;;;;;;;;;;5081674;28;20038;-56
2022/12/05 03:49:54;;;;;;;15.80;9.48;;;;;;;;;;5073810;28;20115;-56
2022/12/05 03:52:23;;;;;;;16.25;9.30;;;;;;;;;;5075217;28;20043;-57
2022/12/05 03:54:49;;;;;;;14.65;9.02;;;;;;;;;;5070231;28;20085;-56
2022/12/05 03:57:47;;;;;;;15.13;9.02;;;;;;;;;;5068826;28;20040;-56
2022/12/05 04:00:19;;;;;;;13.63;8.23;;;;;;;;;;5049673;28;20040;-56
2022/12/05 04:02:45;;;;;;;18.65;9.65;;;;;;;;;;5076068;28;20055;-56
2022/12/05 04:05:15;;;;;;;14.82;9.35;;;;;;;;;;5071718;28;20048;-56
2022/12/05 04:07:40;;;;;;;;;;;;;;;;;;5071997;28;20650;-56
2022/12/05 04:10:07;;;;;;;15.05;8.77;;;;;;;;;;5069606;28;20446;-56
2022/12/05 04:12:33;;;;;;;13.68;8.38;;;;;;;;;;5072152;28;20695;-55
2022/12/05 04:14:59;;;;;;;12.75;8.55;;;;;;;;;;5071933;28;20028;-55
2022/12/05 04:17:43;;;;;;;16.05;8.70;;;;;;;;;;5072172;28;20162;-55
2022/12/05 04:23:02;;;;;;;16.00;9.57;;;;;;;;;;5073301;28;20623;-56
2022/12/05 04:25:33;;;;;;;16.80;9.40;;;;;;;;;;5077220;28;20349;-55
2022/12/05 04:28:07;;;;;;;18.42;8.82;;;;;;;;;;5068743;28;20048;-54
2022/12/05 04:30:47;;;;;;;13.75;8.63;;;;;;;;;;5069965;28;20051;-55
2022/12/05 04:33:16;;;;;;;16.60;9.17;;;;;;;;;;5073428;28;20012;-55
2022/12/05 04:35:41;;;;;;;14.63;9.15;;;;;;;;;;5067892;28;20330;-55
2022/12/05 04:38:07;;;;;;;14.23;8.20;;;;;;;;;;5074513;28;20029;-55
2022/12/05 04:40:34;;;;;;;14.82;8.93;;;;;;;;;;5070980;28;20047;-55
2022/12/05 04:43:00;;;;;;;14.80;8.70;;;;;;;;;;5068001;28;20027;-57
2022/12/05 04:45:25;;;;;;;15.68;8.68;;;;;;;;;;5071782;28;20020;-56
2022/12/05 04:47:52;;;;;;;13.73;8.27;;;;;;;;;;5071263;28;20207;-57
2022/12/05 04:50:17;;;;;;;16.17;8.40;;;;;;;;;;5074706;28;20036;-55
2022/12/05 04:52:44;;;;;;;17.25;8.70;;;;;;;;;;5074783;28;20005;-55
2022/12/05 04:55:13;;;;;;;34.45;12.38;;;;;;;;;;5073890;28;20085;-56
2022/12/05 04:57:43;;;;;;;17.15;9.40;;;;;;;;;;5074833;28;20080;-54
2022/12/05 05:00:09;;;;;;;;;;;;;;;;;;5071008;28;20068;-55
2022/12/05 05:02:39;;;;;;;12.20;6.97;;;;;;;;;;5069936;28;19954;-56
2022/12/05 05:05:06;;;;;;;12.45;7.07;;;;;;;;;;5068535;28;20298;-55
2022/12/05 05:07:31;;;;;;;9.20;6.43;;;;;;;;;;5075834;28;20043;-55
2022/12/05 05:09:56;;;;;;;14.35;9.35;;;;;;;;;;5073525;28;20455;-55
2022/12/05 05:12:21;;;;;;;15.40;10.23;;;;;;;;;;5075806;28;20386;-55
2022/12/05 05:14:47;;;;;;;15.90;10.27;;;;;;;;;;5068715;28;20067;-55
2022/12/05 05:17:12;;;;;;;13.75;8.82;;;;;;;;;;5068297;28;20020;-55
2022/12/05 05:19:37;;;;;;;12.82;8.88;;;;;;;;;;5066701;28;20420;-55
2022/12/05 05:22:03;;;;;;;18.92;11.18;;;;;;;;;;5075472;28;20043;-55
2022/12/05 05:24:28;;;;;;;19.00;10.68;;;;;;;;;;5071248;28;20024;-55
2022/12/05 05:26:53;;;;;;;14.88;8.70;;;;;;;;;;5078934;28;20097;-54
2022/12/05 05:29:18;;;;;;;16.02;9.25;;;;;;;;;;5083194;28;20042;-56
2022/12/05 05:31:44;;;;;;;13.85;8.48;;;;;;;;;;5074812;28;20040;-54
2022/12/05 05:34:09;;;;;;;16.55;9.40;;;;;;;;;;5076469;28;20025;-56
2022/12/05 05:36:34;;;;;;;12.50;7.97;;;;;;;;;;5075957;28;20119;-55
2022/12/05 05:39:00;;;;;;;14.50;9.20;;;;;;;;;;5077222;28;20332;-55
2022/12/05 05:41:29;;;;;;;14.48;8.10;;;;;;;;;;5071214;28;20391;-55
2022/12/05 05:43:54;;;;;;;12.00;8.02;;;;;;;;;;5072636;28;20024;-55
2022/12/05 05:46:20;;;;;;;10.70;7.25;;;;;;;;;;5074261;28;20036;-55
2022/12/05 05:48:46;;;;;;;12.43;7.40;;;;;;;;;;5077055;28;20024;-55
2022/12/05 05:51:11;;;;;;;12.95;7.70;;;;;;;;;;5073099;28;20105;-54
2022/12/05 05:53:36;;;;;;;12.88;7.63;;;;;;;;;;5077294;28;20028;-55
2022/12/05 05:56:05;;;;;;;12.48;7.80;;;;;;;;;;5081809;28;20445;-54
2022/12/05 05:58:30;;;;;;;12.45;7.35;;;;;;;;;;5068676;28;20024;-53
2022/12/05 06:01:05;;;;;;;10.57;7.22;;;;;;;;;;5066963;28;20556;-55
2022/12/05 06:03:30;;;;;;;12.38;7.55;;;;;;;;;;5081598;28;20103;-53
2022/12/05 06:05:56;;;;;;;10.50;7.13;;;;;;;;;;5076362;28;20399;-53
2022/12/05 06:08:22;;;;;;;9.07;6.15;;;;;;;;;;5075205;28;20028;-54
2022/12/05 06:10:47;;;;;;;7.38;5.07;;;;;;;;;;5076788;28;20044;-53
2022/12/05 06:13:12;;;;;;;8.13;5.22;;;;;;;;;;5074141;28;20037;-59
2022/12/05 06:15:37;;;;;;;9.02;6.18;;;;;;;;;;5076545;28;20033;-55
2022/12/05 06:18:03;;;;;;;19.92;10.55;;;;;;;;;;5078358;28;20029;-55
2022/12/05 06:20:28;;;;;;;15.57;6.47;;;;;;;;;;5074846;28;20075;-55
2022/12/05 06:22:53;;;;;;;10.48;6.30;;;;;;;;;;5073135;28;20034;-55
2022/12/05 06:25:18;;;;;;;11.88;5.68;;;;;;;;;;5069226;28;20031;-55
2022/12/05 06:27:44;;;;;;;11.68;5.72;;;;;;;;;;5077109;28;20020;-55
2022/12/05 06:30:09;;;;;;;9.35;5.65;;;;;;;;;;5066516;28;20729;-55
2022/12/05 06:32:35;;;;;;;10.52;6.72;;;;;;;;;;5073008;28;20119;-55
2022/12/05 06:35:06;;;;;;;9.20;5.88;;;;;;;;;;5073528;28;20078;-55
2022/12/05 06:37:34;;;;;;;10.48;6.18;;;;;;;;;;5074013;28;20020;-56
2022/12/05 06:39:59;;;;;;;11.85;6.70;;;;;;;;;;5070417;28;20020;-56
2022/12/05 06:42:24;;;;;;;9.20;6.05;;;;;;;;;;5074290;28;20085;-55
2022/12/05 06:44:49;;;;;;;9.70;6.30;;;;;;;;;;5070609;28;20036;-56
2022/12/05 06:47:15;;;;;;;10.43;6.05;;;;;;;;;;5080301;28;20063;-56
2022/12/05 06:49:40;;;;;;;11.35;6.35;;;;;;;;;;5075152;28;20028;-55
2022/12/05 06:52:05;;;;;;;10.07;6.03;;;;;;;;;;5073410;28;20111;-55
2022/12/05 06:54:31;;;;;;;8.98;5.32;;;;;;;;;;5071732;28;20020;-55
2022/12/05 06:56:56;;;;;;;8.18;5.50;;;;;;;;;;5068419;28;20105;-54
2022/12/05 06:59:21;;;;;;;11.30;5.75;;;;;;;;;;5078693;28;20024;-55
2022/12/05 07:01:46;;;;;;;18.27;6.95;;;;;;;;;;5066818;28;20111;-55
2022/12/05 07:04:13;;;;;;;12.20;6.57;;;;;;;;;;5075732;28;20512;-55
2022/12/05 07:06:38;;;;;;;10.45;5.55;;;;;;;;;;5074768;28;20155;-60
2022/12/05 07:09:04;;;;;;;10.73;5.93;;;;;;;;;;5077725;28;20551;-55
2022/12/05 07:11:29;;;;;;;7.90;5.55;;;;;;;;;;5074628;28;20071;-54
2022/12/05 07:13:54;;;;;;;9.40;5.82;;;;;;;;;;5072024;28;20393;-54
2022/12/05 07:16:20;;;;;;;8.68;5.53;;;;;;;;;;5078701;28;20178;-54
2022/12/05 07:18:45;;;;;;;15.88;8.65;;;;;;;;;;5070237;28;20111;-53
2022/12/05 07:21:12;;;;;;;12.23;8.32;;;;;;;;;;5067613;28;20380;-55
2022/12/05 07:23:37;;;;;;;12.35;8.13;;;;;;;;;;5075957;28;20031;-55
2022/12/05 07:26:03;;;;;;;8.35;5.43;;;;;;;;;;5069198;28;20032;-53
2022/12/05 07:28:28;;;;;;;12.05;6.20;;;;;;;;;;5075896;28;20450;-54
2022/12/05 07:31:03;;;;;;;11.38;6.50;;;;;;;;;;5068059;28;20040;-54
2022/12/05 07:33:29;;;;;;;10.63;5.70;;;;;;;;;;5075373;28;20024;-54
2022/12/05 07:36:00;;;;;;;16.23;6.38;;;;;;;;;;5069925;28;20512;-54
2022/12/05 07:38:26;;;;;;;13.55;6.20;;;;;;;;;;5070698;28;20020;-54
2022/12/05 07:40:51;;;;;;;12.05;6.13;;;;;;;;;;5077325;28;20489;-54
2022/12/05 07:43:16;;;;;;;14.88;5.78;;;;;;;;;;5077519;28;20031;-55
2022/12/05 07:45:42;;;;;;;10.65;5.95;;;;;;;;;;5071479;28;20078;-55
2022/12/05 07:48:07;;;;;;;8.43;5.45;;;;;;;;;;5069964;28;20041;-54
2022/12/05 07:50:32;;;;;;;12.75;5.57;;;;;;;;;;5062241;28;20055;-54
2022/12/05 07:52:58;;;;;;;10.85;6.18;;;;;;;;;;5071405;28;20024;-57
2022/12/05 07:55:23;;;;;;;10.45;5.88;;;;;;;;;;5067361;28;20039;-56
2022/12/05 07:57:48;;;;;;;9.65;5.50;;;;;;;;;;5067151;28;20025;-57
2022/12/05 08:00:16;;;;;;;10.45;5.38;;;;;;;;;;5062152;28;20028;-56
2022/12/05 08:02:42;;;;;;;11.65;5.82;;;;;;;;;;5072245;28;20494;-59
2022/12/05 08:05:07;;;;;;;10.90;6.70;;;;;;;;;;5072493;28;20094;-55
2022/12/05 08:07:32;;;;;;;11.90;6.43;;;;;;;;;;5069057;28;20119;-55
2022/12/05 08:09:58;;;;;;;10.02;5.10;;;;;;;;;;5074118;28;20536;-56
2022/12/05 08:12:26;;;;;;;11.07;5.90;;;;;;;;;;5077511;28;20040;-57
2022/12/05 08:14:51;;;;;;;15.00;5.50;;;;;;;;;;5075341;28;20031;-57
2022/12/05 08:17:17;;;;;;;8.88;5.25;;;;;;;;;;5076568;28;20386;-55
2022/12/05 08:19:43;;;;;;;10.75;5.80;;;;;;;;;;5086669;28;20066;-56
2022/12/05 08:22:08;;;;;;;9.57;6.35;;;;;;;;;;5072842;28;20461;-56
2022/12/05 08:24:33;;;;;;;11.02;6.25;;;;;;;;;;5075951;28;20024;-59
2022/12/05 08:26:58;;;;;;;9.30;6.25;;;;;;;;;;5073627;28;20410;-56
2022/12/05 08:29:24;;;;;;;13.30;6.93;;;;;;;;;;5070802;28;20036;-56
2022/12/05 08:31:49;;;;;;;11.45;6.88;;;;;;;;;;5065877;28;20107;-55
2022/12/05 08:34:15;;;;;;;13.10;7.47;;;;;;;;;;5076185;28;20020;-55
2022/12/05 08:36:40;;;;;;;12.38;7.25;;;;;;;;;;5071038;28;20032;-56
2022/12/05 08:39:06;;;;;;;13.50;7.40;;;;;;;;;;5072207;28;20021;-55
2022/12/05 08:41:31;;;;;;;10.95;6.97;;;;;;;;;;5072149;28;20032;-55
2022/12/05 08:43:57;;;;;;;10.55;7.05;;;;;;;;;;5078204;28;20028;-56
2022/12/05 08:46:22;;;;;;;12.82;6.20;;;;;;;;;;5067883;28;20375;-55
2022/12/05 08:48:48;;;;;;;12.48;7.63;;;;;;;;;;5068331;28;20028;-54
2022/12/05 08:51:13;;;;;;;11.77;7.57;;;;;;;;;;5073536;28;20498;-55
2022/12/05 08:53:41;;;;;;;12.63;7.47;;;;;;;;;;5074154;28;20428;-55
2022/12/05 08:56:07;;;;;;;17.10;9.07;;;;;;;;;;5069267;28;20115;-56
2022/12/05 08:58:32;;;;;;;14.13;7.43;;;;;;;;;;5070687;28;20123;-55
2022/12/05 09:01:04;;;;;;;10.77;6.70;;;;;;;;;;5064745;28;20020;-57
2022/12/05 09:03:30;;;;;;;11.68;7.90;;;;;;;;;;5070676;28;20427;-54
2022/12/05 09:06:04;;;;;;;14.00;8.88;;;;;;;;;;5071161;28;20128;-56
2022/12/05 09:08:29;;;;;;;15.75;8.50;;;;;;;;;;5072738;28;20024;-57
2022/12/05 09:10:54;;;;;;;12.10;8.63;;;;;;;;;;5065002;28;20347;-54
2022/12/05 09:13:19;;;;;;;13.20;9.13;;;;;;;;;;5071216;28;20032;-53
2022/12/05 09:15:45;;;;;;;17.25;10.43;;;;;;;;;;5069163;28;20036;-55
2022/12/05 09:18:11;;;;;;;14.43;9.55;;;;;;;;;;5066073;28;20031;-55
2022/12/05 09:20:38;;;;;;;18.42;9.98;;;;;;;;;;5071929;28;20127;-56
2022/12/05 09:23:03;;;;;;;23.65;8.70;;;;;;;;;;5079472;28;20032;-55
2022/12/05 09:25:28;;;;;;;12.30;7.53;;;;;;;;;;5070271;28;20035;-54
2022/12/05 09:27:53;;;;;;;14.48;6.80;;;;;;;;;;5075749;28;20032;-55
2022/12/05 09:30:19;;;;;;;9.82;6.47;;;;;;;;;;5070662;28;20074;-56
2022/12/05 09:32:44;;;;;;;12.95;5.35;;;;;;;;;;5073584;28;20021;-53
2022/12/05 09:35:10;;;;;;;12.70;6.43;;;;;;;;;;5071368;28;20043;-55
2022/12/05 09:37:35;;;;;;;13.05;6.90;;;;;;;;;;5063536;28;20051;-55
2022/12/05 09:40:00;;;;;;;18.35;6.85;;;;;;;;;;5068046;28;20499;-54
2022/12/05 09:42:34;;;;;;;13.52;7.38;;;;;;;;;;5073439;28;20507;-60
2022/12/05 09:45:02;;;;;;;12.50;6.75;;;;;;;;;;5061430;28;20419;-56
2022/12/05 09:47:34;;;;;;;11.55;6.95;;;;;;;;;;5072410;28;20070;-54
2022/12/05 09:50:20;;;;;;;10.95;6.53;;;;;;;;;;5072241;28;20432;-53
2022/12/05 09:52:48;;;;;;;12.00;7.35;;;;;;;;;;5069085;28;20044;-54
2022/12/05 09:55:14;;;;;;;8.23;5.82;;;;;;;;;;5081704;28;20081;-57
2022/12/05 09:57:43;;;;;;;13.15;7.32;;;;;;;;;;5066381;28;20039;-55
2022/12/05 10:00:08;;;;;;;14.07;7.32;;;;;;;;;;5065674;28;20036;-55
2022/12/05 10:02:52;;;;;;;10.45;6.82;;;;;;;;;;5067472;28;20040;-55
2022/12/05 10:05:18;;;;;;;28.45;16.58;;;;;;;;;;5068083;28;20482;-56
2022/12/05 10:07:50;;;;;;;25.17;15.75;;;;;;;;;;5076849;28;20039;-57
2022/12/05 10:10:34;;;;;;;10.82;7.80;;;;;;;;;;5069848;28;20024;-56
2022/12/05 10:13:18;;;;;;;14.85;8.02;;;;;;;;;;5075761;28;20100;-57
2022/12/05 10:15:46;;;;;;;13.45;9.00;;;;;;;;;;5074373;28;20112;-55
2022/12/05 10:18:30;;;;;;;11.45;8.23;;;;;;;;;;5071470;28;20320;-56
2022/12/05 10:20:57;;;;;;;13.10;8.50;;;;;;;;;;5070602;28;20029;-55
2022/12/05 10:23:23;;;;;;;18.13;8.43;;;;;;;;;;5071342;28;20478;-55
2022/12/05 10:25:50;;;;;;;18.30;8.90;;;;;;;;;;5074180;28;20032;-56
2022/12/05 10:28:24;;;;;;;15.65;8.90;;;;;;;;;;5065984;28;20037;-55
2022/12/05 10:30:50;;;;;;;21.83;9.68;;;;;;;;;;5074128;28;20092;-55
2022/12/05 10:33:20;;;;;;;23.05;9.75;;;;;;;;;;5077418;28;20030;-54
2022/12/05 10:35:45;;;;;;;16.00;8.70;;;;;;;;;;5066682;28;20048;-55
2022/12/05 10:38:22;;;;;;;20.52;8.73;;;;;;;;;;5074903;28;20059;-54
2022/12/05 10:40:48;;;;;;;20.80;8.93;;;;;;;;;;5069736;28;20109;-54
2022/12/05 10:43:15;;;;;;;19.38;8.88;;;;;;;;;;5075168;28;20051;-54
2022/12/05 10:45:44;;;;;;;16.52;8.75;;;;;;;;;;5070694;28;20024;-55
2022/12/05 10:48:19;;;;;;;14.00;7.90;;;;;;;;;;5076231;28;20021;-56
2022/12/05 10:50:45;;;;;;;17.30;8.10;;;;;;;;;;5069417;28;20040;-55
2022/12/05 10:53:30;;;;;;;15.30;8.73;;;;;;;;;;5072019;28;20422;-56
2022/12/05 10:55:56;;;;;;;17.80;8.63;;;;;;;;;;5077993;28;20032;-55
2022/12/05 10:58:25;;;;;;;14.68;8.23;;;;;;;;;;5062897;28;20121;-56
2022/12/05 11:00:51;;;;;;;14.65;8.82;;;;;;;;;;5063757;28;20478;-56
2022/12/05 11:03:27;;;;;;;18.08;9.80;;;;;;;;;;5074038;28;20016;-55
2022/12/05 11:05:52;;;;;;;12.63;7.88;;;;;;;;;;5066553;28;20047;-57
2022/12/05 11:08:25;;;;;;;12.70;6.85;;;;;;;;;;5070298;28;20024;-54
2022/12/05 11:10:57;;;;;;;13.90;7.38;;;;;;;;;;5062557;28;20257;-55
2022/12/05 11:13:23;;;;;;;9.57;5.53;;;;;;;;;;5068612;28;20111;-56
2022/12/05 11:15:48;;;;;;;15.75;10.80;;;;;;;;;;5065024;28;20047;-56
2022/12/05 11:18:18;;;;;;;13.68;8.38;;;;;;;;;;5064542;28;20059;-56
2022/12/05 11:20:44;;;;;;;13.40;7.60;;;;;;;;;;5067942;28;20382;-56
2022/12/05 11:23:16;;;;;;;14.70;8.02;;;;;;;;;;5085134;28;20060;-55
2022/12/05 11:25:42;;;;;;;25.85;13.43;;;;;;;;;;5067767;28;20116;-56
2022/12/05 11:28:16;;;;;;;14.50;8.25;;;;;;;;;;5071162;28;20111;-55
2022/12/05 11:30:58;;;;;;;26.45;13.07;;;;;;;;;;5069159;28;20123;-55
2022/12/05 11:33:24;;;;;;;28.17;14.23;;;;;;;;;;5074253;28;20032;-57
2022/12/05 11:35:49;;;;;;;31.00;15.68;;;;;;;;;;5062963;28;20386;-56
2022/12/05 11:38:15;;;;;;;39.85;19.33;;;;;;;;;;5068698;28;20024;-56
2022/12/05 11:40:53;;;;;;;31.52;17.67;;;;;;;;;;5070982;28;20038;-56
2022/12/05 11:43:29;;;;;;;32.70;17.88;;;;;;;;;;5074446;28;20403;-57
2022/12/05 11:46:13;;;;;;;20.90;12.93;;;;;;;;;;5069816;28;20055;-56
2022/12/05 11:48:39;;;;;;;15.85;10.98;;;;;;;;;;5072025;28;20020;-55
2022/12/05 11:51:40;;;;;;;19.92;11.40;;;;;;;;;;5065844;28;20090;-56
2022/12/05 11:54:24;;;;;;;18.83;9.85;;;;;;;;;;5071762;28;20343;-56
2022/12/05 11:56:53;;;;;;;19.02;10.93;;;;;;;;;;5064311;28;20033;-56
2022/12/05 11:59:34;;;;;;;30.73;14.00;;;;;;;;;;5069661;28;20513;-56
2022/12/05 12:01:59;;;;;;;22.70;12.90;;;;;;;;;;5070464;28;20020;-56
2022/12/05 12:04:44;;;;;;;20.55;10.43;;;;;;;;;;5069332;28;20044;-55
2022/12/05 12:07:28;;;;;;;18.55;9.30;;;;;;;;;;5072837;28;20074;-59
2022/12/05 12:09:54;;;;;;;14.30;9.30;;;;;;;;;;5068402;28;20044;-57
2022/12/05 12:12:25;;;;;;;17.92;9.57;;;;;;;;;;5072387;28;20529;-56
2022/12/05 12:15:09;;;;;;;12.93;9.10;;;;;;;;;;5075401;28;20125;-56
2022/12/05 12:17:43;;;;;;;23.45;14.27;;;;;;;;;;5074254;28;20370;-57
2022/12/05 12:20:15;;;;;;;11.05;7.68;;;;;;;;;;5063043;28;20032;-57
2022/12/05 12:22:43;;;;;;;15.57;9.90;;;;;;;;;;5074244;28;20040;-57
2022/12/05 12:25:26;;;;;;;11.32;8.10;;;;;;;;;;5068510;28;20042;-56
2022/12/05 12:28:00;;;;;;;29.17;19.60;;;;;;;;;;5069990;28;20019;-56
2022/12/05 12:30:37;;;;;;;24.65;15.52;;;;;;;;;;5068673;28;20176;-55
2022/12/05 12:33:04;;;;;;;14.82;9.90;;;;;;;;;;5072339;28;20052;-56
2022/12/05 12:35:29;;;;;;;31.95;21.20;;;;;;;;;;5074376;28;20020;-56
2022/12/05 12:38:07;;;;;;;13.82;9.35;;;;;;;;;;5070829;28;20442;-58
2022/12/05 12:40:51;;;;;;;13.77;8.35;;;;;;;;;;5065659;28;20029;-57
2022/12/05 12:43:27;;;;;;;14.05;8.10;;;;;;;;;;5074608;28;20016;-58
2022/12/05 12:45:56;;;;;;;14.80;9.43;;;;;;;;;;5067320;28;20020;-58
2022/12/05 12:48:40;;;;;;;15.85;7.57;;;;;;;;;;5072403;28;20028;-56
2022/12/05 12:51:05;;;;;;;12.68;8.20;;;;;;;;;;5066454;28;20410;-57
2022/12/05 12:53:33;;;;;;;8.68;6.78;;;;;;;;;;5073235;28;20020;-58
2022/12/05 12:56:08;;;;;;;26.73;12.77;;;;;;;;;;5074415;28;20064;-56
2022/12/05 12:58:56;;;;;;;16.52;7.95;;;;;;;;;;5065516;28;20070;-56
2022/12/05 13:01:41;;;;;;;13.18;7.82;;;;;;;;;;5056203;28;20044;-56
2022/12/05 13:04:13;;;;;;;27.38;13.02;;;;;;;;;;5069686;28;20360;-57
2022/12/05 13:06:38;;;;;;;13.45;8.00;;;;;;;;;;5067124;28;20027;-57
2022/12/05 13:09:06;;;;;;;15.15;8.15;;;;;;;;;;5072285;28;20024;-57
2022/12/05 13:11:33;;;;;;;10.57;7.13;;;;;;;;;;5066937;28;20096;-57
2022/12/05 13:13:58;;;;;;;12.45;7.60;;;;;;;;;;5069553;28;20029;-57
2022/12/05 13:16:31;;;;;;;10.93;6.65;;;;;;;;;;5059058;28;21579;-56
2022/12/05 13:18:57;;;;;;;10.60;6.50;;;;;;;;;;5073055;28;20214;-56
2022/12/05 13:21:22;;;;;;;10.10;6.78;;;;;;;;;;5060137;28;20064;-57
2022/12/05 13:23:48;;;;;;;10.40;7.22;;;;;;;;;;5069467;28;20087;-57
2022/12/05 13:26:14;;;;;;;9.35;6.03;;;;;;;;;;5066108;28;20203;-57
2022/12/05 13:28:55;;;;;;;9.27;6.75;;;;;;;;;;5073301;28;20297;-57
2022/12/05 13:31:37;;;;;;;9.10;6.05;;;;;;;;;;5074377;28;20480;-57
2022/12/05 13:34:02;;;;;;;10.38;6.60;;;;;;;;;;5070039;28;20028;-56
2022/12/05 13:42:15;;;;;;;14.52;8.20;;;;;;;;;;5071199;28;20497;-59
2022/12/05 13:44:40;;;;;;;12.13;7.70;;;;;;;;;;5072250;28;20427;-59
2022/12/05 13:47:08;;;;;;;12.52;6.80;;;;;;;;;;5074269;28;20440;-56
2022/12/05 13:49:37;;;;;;;10.00;6.32;;;;;;;;;;5069030;28;20352;-59
2022/12/05 13:52:13;;;;;;;11.15;7.00;;;;;;;;;;5067494;28;20037;-58
2022/12/05 13:54:43;;;;;;;11.50;6.22;;;;;;;;;;5070682;28;20021;-58
2022/12/05 13:57:09;;;;;;;10.80;6.73;;;;;;;;;;5069283;28;20052;-57
2022/12/05 13:59:53;;;;;;;13.60;8.50;;;;;;;;;;5065735;28;20052;-60
2022/12/05 14:02:37;;;;;;;14.55;9.13;;;;;;;;;;5085159;28;20367;-57
2022/12/05 14:05:09;;;;;;;14.27;9.48;;;;;;;;;;5076889;28;20558;-58
2022/12/05 14:07:35;;;;;;;13.77;9.05;;;;;;;;;;5082923;28;20482;-59
2022/12/05 14:10:00;;;;;;;18.27;9.80;;;;;;;;;;5074237;28;20036;-58
2022/12/05 14:12:30;;;;;;;19.38;10.90;;;;;;;;;;5071120;28;20359;-58
2022/12/05 14:15:02;;;;;;;18.73;10.45;;;;;;;;;;5079820;28;20054;-58
2022/12/05 14:17:28;;;;;;;19.85;10.50;;;;;;;;;;5071891;28;20035;-57
2022/12/05 14:20:00;;;;;;;14.70;9.98;;;;;;;;;;5072902;28;20627;-57
2022/12/05 14:22:25;;;;;;;17.17;10.77;;;;;;;;;;5077983;28;20050;-58
2022/12/05 14:25:20;;;;;;;25.73;13.48;;;;;;;;;;5076166;28;20029;-57
2022/12/05 14:27:51;;;;;;;21.10;13.43;;;;;;;;;;5048456;28;20048;-58
2022/12/05 14:30:19;;;;;;;20.67;12.20;;;;;;;;;;5067664;28;20085;-58
2022/12/05 14:32:44;;;;;;;20.90;13.27;;;;;;;;;;5074725;28;20107;-58
2022/12/05 14:35:09;;;;;;;22.25;14.20;;;;;;;;;;5079310;28;20168;-56
2022/12/05 14:37:41;;;;;;;27.23;13.93;;;;;;;;;;5076125;28;20423;-58
2022/12/05 14:40:22;;;;;;;22.75;13.82;;;;;;;;;;5075550;28;20232;-57
2022/12/05 14:42:52;;;;;;;25.75;15.95;;;;;;;;;;5080122;28;20028;-56
2022/12/05 14:45:30;;;;;;;23.77;14.60;;;;;;;;;;5067113;28;20021;-57